Time;durP1;ratioP1;P1;durP2;ratioP2;P2;SDS_P1;SDS_P2;PMS_P1;PMS_P2;Temp;Humidity;BMP_temperature;BMP_pressure;BME280_temperature;BME280_humidity;BME280_pressure;Samples;Min_cycle;Max_cycle;Signal;HPM_P1;HPM_P2
2022/07/31 00:00:20;;;;;;;108.97;65.43;;;;;;;-144.47;79.05;53414.25;4977843;28;20214;-68
2022/07/31 00:02:45;;;;;;;51.72;25.85;;;;;;;-144.47;79.34;53438.09;4997734;28;20061;-69
2022/07/31 00:05:11;;;;;;;42.72;21.75;;;;;;;-144.47;79.16;53446.03;4992629;28;20022;-68
2022/07/31 00:07:36;;;;;;;51.28;25.92;;;;;;;-144.47;78.94;53444.03;4990355;28;20025;-67
2022/07/31 00:10:03;;;;;;;41.67;22.08;;;;;;;-144.47;78.55;53440.06;4991822;28;20549;-67
2022/07/31 00:12:28;;;;;;;47.97;20.85;;;;;;;-144.47;78.54;53426.16;4991510;28;20556;-68
2022/07/31 00:14:54;;;;;;;35.92;20.58;;;;;;;-144.47;78.59;53424.19;4993100;28;20023;-69
2022/07/31 00:17:19;;;;;;;44.20;19.20;;;;;;;-144.47;78.49;53452.00;4991625;28;20112;-69
2022/07/31 00:19:45;;;;;;;41.85;21.55;;;;;;;-144.47;78.22;53410.28;4980343;28;20416;-70
2022/07/31 00:22:11;;;;;;;40.60;21.65;;;;;;;-144.47;78.32;53380.47;4990567;28;20022;-68
2022/07/31 00:24:36;;;;;;;42.05;24.27;;;;;;;-144.47;78.49;53444.03;4992690;28;20026;-64
2022/07/31 00:27:03;;;;;;;53.25;25.02;;;;;;;-144.47;78.39;53414.25;4971329;28;20027;-65
2022/07/31 00:29:29;;;;;;;40.97;24.80;;;;;;;-144.47;78.47;53430.13;4991648;28;20026;-68
2022/07/31 00:31:55;;;;;;;49.78;24.90;;;;;;;-144.47;78.30;53404.31;4991087;28;20022;-66
2022/07/31 00:34:21;;;;;;;51.10;26.67;;;;;;;-144.47;78.70;53428.16;4991314;28;20508;-66
2022/07/31 00:36:46;;;;;;;52.53;28.95;;;;;;;-144.47;78.69;53394.38;4992139;28;20027;-65
2022/07/31 00:39:12;;;;;;;46.25;24.65;;;;;;;-144.47;78.70;53428.16;4973499;28;20019;-66
2022/07/31 00:41:43;;;;;;;39.40;23.33;;;;;;;-144.47;78.82;53444.03;4991496;28;20555;-68
2022/07/31 00:44:12;;;;;;;58.22;24.40;;;;;;;-144.47;79.17;53465.91;4991564;28;20034;-68
2022/07/31 00:46:40;;;;;;;45.55;22.33;;;;;;;-144.47;79.38;53430.13;4955521;28;20030;-66
2022/07/31 00:49:11;;;;;;;45.35;24.33;;;;;;;-144.47;79.41;53442.06;4990896;28;20112;-68
2022/07/31 00:51:38;;;;;;;75.45;34.65;;;;;;;-144.47;79.35;53440.06;4990199;28;20018;-68
2022/07/31 00:54:04;;;;;;;62.47;33.55;;;;;;;-144.47;79.29;53452.00;4989603;28;20109;-64
2022/07/31 00:56:29;;;;;;;63.35;33.08;;;;;;;-144.47;79.39;53463.91;4972949;28;20033;-68
2022/07/31 00:58:55;;;;;;;66.88;31.83;;;;;;;-144.47;79.31;53406.31;4974952;28;20030;-66
2022/07/31 01:01:21;;;;;;;51.25;30.02;;;;;;;-144.47;79.46;53424.19;4990347;28;20030;-68
2022/07/31 01:03:47;;;;;;;47.35;26.10;;;;;;;-144.47;79.44;53396.38;4991813;28;20018;-67
2022/07/31 01:06:13;;;;;;;45.83;25.98;;;;;;;-144.47;79.37;53414.25;4992349;28;20061;-66
2022/07/31 01:08:39;;;;;;;46.70;26.52;;;;;;;-144.47;79.30;53424.19;4973369;28;20073;-66
2022/07/31 01:11:20;;;;;;;46.58;24.08;;;;;;;-144.47;79.46;53444.03;4990653;28;20026;-66
2022/07/31 01:14:07;;;;;;;48.85;25.63;;;;;;;-144.47;79.37;53493.72;4990669;28;20034;-65
2022/07/31 01:16:35;;;;;;;61.65;27.15;;;;;;;-144.47;79.45;53481.78;4990902;28;20030;-65
2022/07/31 01:19:14;;;;;;;53.50;28.95;;;;;;;-144.47;79.43;53410.28;4991416;28;20034;-67
2022/07/31 01:21:55;;;;;;;56.40;28.45;;;;;;;-144.47;79.39;53412.25;4970654;28;20065;-67
2022/07/31 01:24:38;;;;;;;49.72;24.23;;;;;;;-144.47;79.66;53436.09;4988518;28;20045;-68
2022/07/31 01:27:36;;;;;;;44.75;24.42;;;;;;;-144.47;79.81;53436.09;4954013;28;20249;-67
2022/07/31 01:30:03;;;;;;;41.40;22.90;;;;;;;-144.47;79.97;53448.00;4983046;28;20412;-67
2022/07/31 01:32:34;;;;;;;49.03;23.80;;;;;;;-144.47;79.76;53436.09;4989859;28;20268;-64
2022/07/31 01:35:21;;;;;;;40.35;23.63;;;;;;;-144.47;79.74;53418.22;4991473;28;20026;-67
2022/07/31 01:37:53;;;;;;;42.80;22.90;;;;;;;-144.47;79.67;53455.97;4988588;28;20033;-66
2022/07/31 01:40:25;;;;;;;39.42;22.45;;;;;;;-144.47;79.51;53418.22;4991272;28;20033;-65
2022/07/31 01:42:55;;;;;;;50.50;25.77;;;;;;;-144.47;79.76;53410.28;4991305;28;20039;-68
2022/07/31 01:45:21;;;;;;;51.42;24.63;;;;;;;-144.47;79.65;53455.97;4973487;28;20196;-69
2022/07/31 01:47:48;;;;;;;55.40;26.08;;;;;;;-144.47;79.84;53473.84;4990153;28;20022;-68
2022/07/31 01:50:14;;;;;;;42.38;22.75;;;;;;;-144.47;79.83;53418.22;4990278;28;20391;-69
2022/07/31 01:52:42;;;;;;;45.83;25.42;;;;;;;-144.47;79.84;53420.22;4972017;28;20026;-68
2022/07/31 01:55:10;;;;;;;45.95;24.73;;;;;;;-144.47;79.76;53440.06;4989982;28;20037;-70
2022/07/31 01:57:38;;;;;;;48.00;23.83;;;;;;;-144.47;79.68;53436.09;4989192;28;20049;-65
2022/07/31 02:00:07;;;;;;;52.03;26.47;;;;;;;-144.47;80.03;53404.31;4974150;28;20042;-69
2022/07/31 02:02:34;;;;;;;52.30;26.35;;;;;;;-144.47;80.24;53452.00;4973741;28;20038;-69
2022/07/31 02:05:02;;;;;;;56.33;27.13;;;;;;;-144.47;80.28;53465.91;4989666;28;20050;-66
2022/07/31 02:07:28;;;;;;;50.38;25.95;;;;;;;-144.47;80.48;53418.22;4972003;28;20105;-67
2022/07/31 02:09:56;;;;;;;58.15;29.05;;;;;;;-144.47;80.48;53426.16;4989454;28;20515;-70
2022/07/31 02:12:23;;;;;;;53.00;27.55;;;;;;;-144.47;80.48;53469.88;4973374;28;20447;-66
2022/07/31 02:14:49;;;;;;;53.75;28.15;;;;;;;-144.47;80.16;53450.00;4954320;28;20038;-68
2022/07/31 02:17:16;;;;;;;60.40;29.95;;;;;;;-144.47;80.29;53444.03;4985277;28;20052;-66
2022/07/31 02:19:44;;;;;;;49.17;27.50;;;;;;;-144.47;80.61;53430.13;4978237;28;20068;-68
2022/07/31 02:22:09;;;;;;;45.78;26.42;;;;;;;-144.47;80.46;53455.97;4989877;28;20035;-68
2022/07/31 02:24:35;;;;;;;54.72;26.20;;;;;;;-144.47;80.69;53420.22;4990562;28;20037;-69
2022/07/31 02:27:02;;;;;;;42.85;26.05;;;;;;;-144.47;80.62;53420.22;4989996;28;20113;-67
2022/07/31 02:29:31;;;;;;;52.88;27.67;;;;;;;-144.47;80.83;53424.19;4990642;28;20076;-66
2022/07/31 02:31:58;;;;;;;45.63;25.63;;;;;;;-144.47;80.66;53457.94;4973308;28;20486;-66
2022/07/31 02:34:25;;;;;;;50.17;26.88;;;;;;;-144.47;80.75;53442.06;4969499;28;20231;-68
2022/07/31 02:36:52;;;;;;;58.65;29.00;;;;;;;-144.47;80.62;53452.00;4989038;28;20030;-67
2022/07/31 02:39:20;;;;;;;55.10;28.88;;;;;;;-144.47;80.62;53463.91;4969192;28;20476;-67
2022/07/31 02:41:46;;;;;;;57.30;29.65;;;;;;;-144.47;80.67;53457.94;4973048;28;20035;-68
2022/07/31 02:44:13;;;;;;;50.75;28.48;;;;;;;-144.47;80.69;53457.94;4973300;28;20022;-66
2022/07/31 02:46:39;;;;;;;58.95;29.48;;;;;;;-144.47;80.47;53477.81;4969025;28;20492;-66
2022/07/31 02:49:05;;;;;;;46.88;27.23;;;;;;;-144.47;80.57;53469.88;4968917;28;20473;-68
2022/07/31 02:51:32;;;;;;;57.22;33.38;;;;;;;-144.47;80.63;53455.97;4963657;28;20018;-66
2022/07/31 02:53:58;;;;;;;71.75;35.30;;;;;;;-144.47;80.80;53473.84;4987494;28;20585;-65
2022/07/31 02:56:24;;;;;;;60.22;34.80;;;;;;;-144.47;81.10;53420.22;4988017;28;20037;-67
2022/07/31 02:58:50;;;;;;;58.85;31.58;;;;;;;-144.47;81.30;53440.06;4972416;28;20391;-67
2022/07/31 03:01:15;;;;;;;50.83;28.05;;;;;;;-144.47;81.13;53457.94;4972659;28;20029;-68
2022/07/31 03:03:41;;;;;;;50.72;26.67;;;;;;;-144.47;81.50;53453.97;4993517;28;20018;-65
2022/07/31 03:06:06;;;;;;;52.03;26.35;;;;;;;-144.47;81.83;53446.03;4996536;28;20563;-67
2022/07/31 03:08:31;;;;;;;52.40;29.02;;;;;;;-144.47;81.90;53446.03;4993804;28;20133;-65
2022/07/31 03:10:57;;;;;;;46.45;27.73;;;;;;;-144.47;81.93;53459.94;4979585;28;20018;-64
2022/07/31 03:13:25;;;;;;;45.58;27.55;;;;;;;-144.47;82.05;53418.22;4978845;28;20026;-66
2022/07/31 03:15:52;;;;;;;48.15;27.02;;;;;;;-144.47;81.97;53428.16;4980476;28;20034;-64
2022/07/31 03:18:20;;;;;;;52.15;27.90;;;;;;;-144.47;81.82;53428.16;4981262;28;20392;-66
2022/07/31 03:20:50;;;;;;;62.70;28.77;;;;;;;-144.47;81.90;53471.84;5029803;22;20049;-65
2022/07/31 03:23:15;;;;;;;53.33;26.98;;;;;;;-144.47;81.92;53444.03;5033517;28;20132;-66
2022/07/31 03:25:41;;;;;;;49.33;27.15;;;;;;;-144.47;81.99;53453.97;5036199;28;20138;-67
2022/07/31 03:28:07;;;;;;;52.47;29.23;;;;;;;-144.47;81.74;53467.88;5034981;28;20052;-67
2022/07/31 03:30:34;;;;;;;60.08;30.42;;;;;;;-144.47;81.90;53459.94;5035804;28;20025;-66
2022/07/31 03:33:02;;;;;;;81.32;35.30;;;;;;;-144.47;81.60;53438.09;5035782;28;20021;-64
2022/07/31 03:35:28;;;;;;;72.10;36.75;;;;;;;-144.47;81.47;53483.78;5035941;28;20117;-63
2022/07/31 03:37:53;;;;;;;70.28;39.20;;;;;;;-144.47;81.54;53424.19;5034319;28;20294;-66
2022/07/31 03:40:18;;;;;;;65.47;34.00;;;;;;;-144.47;82.07;53426.16;5035585;28;20100;-66
2022/07/31 03:42:46;;;;;;;73.95;35.70;;;;;;;-144.47;82.01;53467.88;5035885;28;20025;-68
2022/07/31 03:45:12;;;;;;;63.13;33.10;;;;;;;-144.47;82.02;53426.16;5034920;28;20025;-68
2022/07/31 03:47:37;;;;;;;64.15;33.53;;;;;;;-144.47;81.92;53420.22;5035202;28;20498;-65
2022/07/31 03:50:03;;;;;;;54.90;30.08;;;;;;;-144.47;82.05;53448.00;5035898;28;20044;-66
2022/07/31 03:52:30;;;;;;;64.40;30.55;;;;;;;-144.47;82.08;53452.00;5033257;28;20017;-65
2022/07/31 03:54:55;;;;;;;54.42;28.85;;;;;;;-144.47;81.93;53432.13;5034138;28;20030;-67
2022/07/31 03:57:22;;;;;;;51.35;26.23;;;;;;;-144.47;81.72;53440.06;5034761;28;20041;-67
2022/07/31 03:59:49;;;;;;;56.67;28.45;;;;;;;-144.47;81.33;53455.97;5033915;28;20033;-66
2022/07/31 04:02:15;;;;;;;58.13;27.10;;;;;;;-144.47;81.44;53461.91;5035103;28;20025;-65
2022/07/31 04:04:42;;;;;;;48.85;26.15;;;;;;;-144.47;81.35;53457.94;5034312;28;20412;-67
2022/07/31 04:07:07;;;;;;;49.33;26.60;;;;;;;-144.47;81.57;53418.22;5033141;28;20395;-65
2022/07/31 04:09:32;;;;;;;48.88;27.85;;;;;;;-144.47;81.60;53422.19;5034726;28;20024;-67
2022/07/31 04:11:58;;;;;;;47.78;29.20;;;;;;;-144.47;81.53;53436.09;5034148;28;20018;-65
2022/07/31 04:14:23;;;;;;;49.25;27.80;;;;;;;-144.47;81.56;53473.84;5033513;28;20022;-67
2022/07/31 04:16:49;;;;;;;54.25;28.23;;;;;;;-144.47;81.68;53446.03;5031995;28;20264;-65
2022/07/31 04:19:14;;;;;;;48.85;26.23;;;;;;;-144.47;81.50;53459.94;5031730;28;20021;-68
2022/07/31 04:21:40;;;;;;;46.90;26.58;;;;;;;-144.47;81.25;53479.81;5031930;28;20040;-67
2022/07/31 04:24:06;;;;;;;52.53;27.00;;;;;;;-144.47;81.11;53428.16;5030046;28;20117;-67
2022/07/31 04:26:31;;;;;;;49.30;26.92;;;;;;;-144.47;81.10;53457.94;5032149;28;20442;-68
2022/07/31 04:28:57;;;;;;;42.78;25.42;;;;;;;-144.47;81.05;53440.06;5031228;28;20071;-65
2022/07/31 04:31:22;;;;;;;66.38;29.60;;;;;;;-144.47;81.01;53422.19;5031231;28;20028;-68
2022/07/31 04:33:49;;;;;;;44.60;26.20;;;;;;;-144.47;80.85;53438.09;5031947;28;20021;-66
2022/07/31 04:36:15;;;;;;;51.58;29.42;;;;;;;-144.47;80.68;53440.06;5030535;28;20280;-68
2022/07/31 04:38:42;;;;;;;50.40;27.17;;;;;;;-144.47;80.59;53442.06;5031577;28;20040;-67
2022/07/31 04:41:07;;;;;;;46.30;26.35;;;;;;;-144.47;80.38;53459.94;5030960;28;20025;-65
2022/07/31 04:43:32;;;;;;;43.33;26.63;;;;;;;-144.47;80.48;53489.72;5032263;28;20025;-66
2022/07/31 04:45:58;;;;;;;47.35;24.50;;;;;;;-144.47;80.40;53446.03;5032027;28;20032;-64
2022/07/31 04:48:23;;;;;;;50.58;25.02;;;;;;;-144.47;80.17;53440.06;5029784;28;20030;-65
2022/07/31 04:50:49;;;;;;;42.30;24.50;;;;;;;-144.47;80.21;53469.88;5030894;28;20028;-66
2022/07/31 04:53:14;;;;;;;45.80;25.35;;;;;;;-144.47;79.93;53418.22;5029550;28;20403;-66
2022/07/31 04:55:40;;;;;;;45.20;24.85;;;;;;;-144.47;79.58;53448.00;5032139;28;20025;-66
2022/07/31 04:58:05;;;;;;;44.38;26.75;;;;;;;-144.47;79.31;53483.78;5028570;28;20026;-64
2022/07/31 05:00:31;;;;;;;50.80;24.88;;;;;;;-144.47;78.93;53453.97;5030332;28;20110;-66
2022/07/31 05:02:56;;;;;;;40.65;23.10;;;;;;;-144.47;78.82;53444.03;5031498;28;20082;-65
2022/07/31 05:05:21;;;;;;;45.90;24.77;;;;;;;-144.47;78.56;53422.19;5031856;28;20025;-67
2022/07/31 05:07:47;;;;;;;47.47;24.40;;;;;;;-144.47;78.44;53446.03;5008014;28;20022;-65
2022/07/31 05:11:21;;;;;;;45.88;25.02;;;;;;;-144.47;77.99;53422.19;4994486;28;20385;-67
2022/07/31 05:12:58;;;;;;;48.90;24.55;;;;;;;-144.47;77.90;53406.31;5027548;28;20033;-67
2022/07/31 05:15:23;;;;;;;49.47;25.73;;;;;;;-144.47;77.50;53442.06;5010518;28;20100;-68
2022/07/31 05:17:49;;;;;;;48.90;25.88;;;;;;;-144.47;77.47;53432.13;5027916;28;20112;-65
2022/07/31 05:20:15;;;;;;;45.60;24.17;;;;;;;-144.47;77.50;53404.31;5013958;28;20049;-67
2022/07/31 05:22:40;;;;;;;46.60;23.35;;;;;;;-144.47;77.73;53426.16;5028839;28;20068;-67
2022/07/31 05:25:06;;;;;;;42.00;24.17;;;;;;;-144.47;77.52;53481.78;5031173;28;20033;-67
2022/07/31 05:27:31;;;;;;;40.25;23.67;;;;;;;-144.47;77.45;53446.03;5008326;28;20113;-65
2022/07/31 05:29:56;;;;;;;48.33;24.23;;;;;;;-144.47;77.37;53428.16;5026422;28;20487;-66
2022/07/31 05:32:22;;;;;;;36.47;22.13;;;;;;;-144.47;77.22;53489.72;5030961;28;20029;-67
2022/07/31 05:34:47;;;;;;;41.50;23.67;;;;;;;-144.47;77.03;53432.13;5009876;28;20049;-67
2022/07/31 05:37:12;;;;;;;44.78;24.42;;;;;;;-144.47;76.86;53402.31;5012011;28;20075;-68
2022/07/31 05:39:38;;;;;;;41.38;22.67;;;;;;;-144.47;76.48;53404.31;5010403;28;20071;-66
2022/07/31 05:42:03;;;;;;;38.72;21.52;;;;;;;-144.47;75.82;53444.03;5027364;28;20051;-67
2022/07/31 05:44:29;;;;;;;37.28;22.50;;;;;;;-144.47;74.86;53408.28;5009939;28;20029;-68
2022/07/31 05:46:54;;;;;;;38.72;20.58;;;;;;;-144.47;74.25;53428.16;5026243;28;20105;-67
2022/07/31 05:49:21;;;;;;;38.08;22.08;;;;;;;-144.47;74.04;53432.13;5009487;28;20026;-66
2022/07/31 05:51:46;;;;;;;32.28;20.17;;;;;;;-144.47;73.55;53384.44;5011876;28;20032;-66
2022/07/31 05:54:11;;;;;;;38.40;20.50;;;;;;;-144.47;73.45;53416.22;5012481;28;20025;-68
2022/07/31 05:56:37;;;;;;;31.13;17.77;;;;;;;-144.47;72.66;53398.34;5028720;28;20284;-67
2022/07/31 05:59:02;;;;;;;39.75;19.40;;;;;;;-144.47;71.42;53400.34;5030592;28;20036;-67
2022/07/31 06:01:28;;;;;;;38.13;20.33;;;;;;;-144.47;70.44;53424.19;5030926;28;20041;-66
2022/07/31 06:03:53;;;;;;;37.72;18.95;;;;;;;-144.47;69.06;53412.25;5031164;28;20128;-67
2022/07/31 06:06:18;;;;;;;34.50;17.35;;;;;;;-144.47;68.30;53394.38;5030398;28;20021;-66
2022/07/31 06:08:44;;;;;;;38.17;18.70;;;;;;;-144.47;67.70;53400.34;5028011;28;20535;-67
2022/07/31 06:11:09;;;;;;;32.70;17.48;;;;;;;-144.47;66.93;53372.53;5012689;28;20055;-67
2022/07/31 06:13:34;;;;;;;30.67;17.13;;;;;;;-144.47;65.94;53372.53;5030484;28;20490;-66
2022/07/31 06:16:00;;;;;;;34.60;17.00;;;;;;;-144.47;65.27;53408.28;5030429;28;20025;-67
2022/07/31 06:18:25;;;;;;;32.83;16.05;;;;;;;-144.47;65.56;53364.59;5029309;28;20535;-65
2022/07/31 06:20:51;;;;;;;23.42;16.13;;;;;;;-144.47;65.39;53384.44;5011365;28;20096;-67
2022/07/31 06:23:16;;;;;;;27.85;16.85;;;;;;;-144.47;65.10;53386.44;5027942;28;20037;-65
2022/07/31 06:25:42;;;;;;;30.70;16.77;;;;;;;-144.47;64.53;53386.44;5029225;28;20029;-67
2022/07/31 06:28:07;;;;;;;33.90;18.13;;;;;;;-144.47;64.34;53390.41;5028438;28;20029;-65
2022/07/31 06:30:32;;;;;;;35.42;17.08;;;;;;;-144.47;64.84;53382.47;5012405;28;20033;-67
2022/07/31 06:32:58;;;;;;;61.97;17.25;;;;;;;-144.47;65.93;53354.66;5028648;28;20017;-68
2022/07/31 06:35:23;;;;;;;32.45;17.10;;;;;;;-144.47;64.64;53370.53;5030130;28;20036;-66
2022/07/31 06:37:49;;;;;;;34.78;17.25;;;;;;;-144.47;64.60;53384.44;5028149;28;20025;-68
2022/07/31 06:40:14;;;;;;;27.50;15.57;;;;;;;-144.47;65.24;53356.63;4994787;28;20021;-66
2022/07/31 06:42:40;;;;;;;27.80;16.95;;;;;;;-144.47;65.02;53362.59;5029353;28;20067;-68
2022/07/31 06:45:06;;;;;;;40.17;17.83;;;;;;;-144.47;64.97;53416.22;5029028;28;20097;-68
2022/07/31 06:47:31;;;;;;;27.73;16.60;;;;;;;-144.47;64.99;53418.22;5012321;28;20087;-67
2022/07/31 06:49:56;;;;;;;28.33;17.20;;;;;;;-144.47;64.57;53410.28;5028284;28;20018;-66
2022/07/31 06:52:22;;;;;;;36.35;17.10;;;;;;;-144.47;64.74;53394.38;5008123;28;20030;-67
2022/07/31 06:54:47;;;;;;;26.10;15.85;;;;;;;-144.47;64.22;53402.31;5025347;28;20052;-67
2022/07/31 06:57:13;;;;;;;27.25;16.30;;;;;;;-144.47;64.28;53346.72;5007252;28;20026;-66
2022/07/31 06:59:38;;;;;;;29.25;18.23;;;;;;;-144.47;63.48;53390.41;5004571;28;20109;-67
2022/07/31 07:02:04;;;;;;;31.75;17.70;;;;;;;-144.47;63.83;53416.22;5011966;28;20053;-67
2022/07/31 07:04:30;;;;;;;31.10;18.05;;;;;;;-144.47;63.80;53354.66;5011833;28;20033;-67
2022/07/31 07:06:55;;;;;;;37.65;19.23;;;;;;;-144.47;64.15;53394.38;5027172;28;20268;-66
2022/07/31 07:09:20;;;;;;;28.70;17.00;;;;;;;-144.47;64.52;53376.50;5009141;28;20034;-66
2022/07/31 07:11:46;;;;;;;28.83;17.00;;;;;;;-144.47;64.16;53422.19;5028384;28;20036;-66
2022/07/31 07:14:15;;;;;;;29.08;17.30;;;;;;;-144.47;64.02;53360.63;5012152;28;20025;-66
2022/07/31 07:16:40;;;;;;;30.98;17.77;;;;;;;-144.47;63.88;53386.44;5029212;28;20100;-65
2022/07/31 07:19:05;;;;;;;29.23;17.65;;;;;;;-144.47;63.82;53396.38;5009686;28;20387;-64
2022/07/31 07:21:31;;;;;;;42.83;18.45;;;;;;;-144.47;64.05;53380.47;5029307;28;20075;-65
2022/07/31 07:23:56;;;;;;;30.85;16.98;;;;;;;-144.47;63.81;53366.56;5028524;28;20037;-66
2022/07/31 07:26:22;;;;;;;27.02;16.90;;;;;;;-144.47;64.03;53362.59;5027467;28;20493;-67
2022/07/31 07:28:47;;;;;;;30.50;16.45;;;;;;;-144.47;63.75;53400.34;5025677;28;20084;-67
2022/07/31 07:31:13;;;;;;;30.98;16.90;;;;;;;-144.47;63.46;53344.72;5028391;28;20506;-68
2022/07/31 07:33:38;;;;;;;31.40;15.77;;;;;;;-144.47;63.53;53368.56;5011652;28;20030;-68
2022/07/31 07:36:04;;;;;;;38.70;15.85;;;;;;;-144.47;63.77;53396.38;5028324;28;20029;-67
2022/07/31 07:38:29;;;;;;;30.83;16.05;;;;;;;-144.47;63.56;53396.38;5026291;28;20022;-68
2022/07/31 07:40:55;;;;;;;36.70;16.05;;;;;;;-144.47;63.56;53398.34;5027649;28;20112;-67
2022/07/31 07:43:20;;;;;;;26.50;15.07;;;;;;;-144.47;63.45;53368.56;5027444;28;20025;-68
2022/07/31 07:45:46;;;;;;;32.90;14.95;;;;;;;-144.47;62.63;53398.34;5008079;28;20053;-66
2022/07/31 07:48:11;;;;;;;25.95;13.30;;;;;;;-144.47;60.98;53366.56;5009933;28;20502;-67
2022/07/31 07:50:36;;;;;;;35.08;14.95;;;;;;;-144.47;60.67;53306.97;5030389;28;20490;-67
2022/07/31 07:53:02;;;;;;;30.27;13.82;;;;;;;-144.47;60.37;53332.81;5032148;28;20033;-67
2022/07/31 07:55:27;;;;;;;32.53;13.10;;;;;;;-144.47;59.94;53346.72;5032882;28;20028;-67
2022/07/31 07:57:53;;;;;;;25.70;14.55;;;;;;;-144.47;60.02;53348.69;5014278;28;20039;-67
2022/07/31 08:00:19;;;;;;;25.13;13.27;;;;;;;-144.47;59.43;53360.63;5032375;28;20412;-67
2022/07/31 08:02:45;;;;;;;26.50;14.18;;;;;;;-144.47;58.83;53324.84;5031113;28;20044;-66
2022/07/31 08:05:11;;;;;;;25.15;13.40;;;;;;;-144.47;59.67;53350.69;5031630;28;20462;-66
2022/07/31 08:07:38;;;;;;;27.48;14.25;;;;;;;-144.47;59.34;53384.44;5030178;28;20510;-67
2022/07/31 08:10:05;;;;;;;25.08;14.27;;;;;;;-144.47;59.71;53372.53;5015049;28;20517;-66
2022/07/31 08:12:30;;;;;;;27.30;13.48;;;;;;;-144.47;59.18;53328.81;5032661;28;20434;-67
2022/07/31 08:14:56;;;;;;;25.02;14.20;;;;;;;-144.47;58.52;53332.81;5038568;28;20432;-68
2022/07/31 08:17:21;;;;;;;22.83;13.63;;;;;;;-144.47;58.97;53360.63;5025085;28;20029;-65
2022/07/31 08:19:47;;;;;;;23.77;13.07;;;;;;;-144.47;59.26;53346.72;5025055;28;20476;-67
2022/07/31 08:22:12;;;;;;;26.27;14.10;;;;;;;-144.47;59.41;53368.56;5024462;28;20080;-66
2022/07/31 08:24:38;;;;;;;26.90;14.23;;;;;;;-144.47;59.80;53340.75;5011340;28;20022;-65
2022/07/31 08:29:48;;;;;;;21.52;12.57;;;;;;;-144.47;59.38;53382.47;5032292;28;20314;-66
2022/07/31 08:32:13;;;;;;;27.65;13.27;;;;;;;-144.47;58.33;53374.50;5014161;28;20246;-65
2022/07/31 08:34:38;;;;;;;34.15;13.70;;;;;;;-144.47;57.68;53320.88;5014605;28;20021;-67
2022/07/31 08:37:05;;;;;;;23.30;13.20;;;;;;;-144.47;57.91;53340.75;5029339;28;20564;-67
2022/07/31 08:39:31;;;;;;;28.95;14.48;;;;;;;-144.47;57.24;53312.94;5030740;28;20293;-68
2022/07/31 08:41:57;;;;;;;22.42;12.52;;;;;;;-144.47;57.05;53336.78;5030778;28;20036;-68
2022/07/31 08:44:22;;;;;;;22.10;12.95;;;;;;;-144.47;57.96;53330.81;5011186;28;20030;-66
2022/07/31 08:46:50;;;;;;;25.58;14.00;;;;;;;-144.47;57.66;53342.72;5025991;28;20018;-67
2022/07/31 08:49:17;;;;;;;30.88;13.25;;;;;;;-144.47;56.75;53342.72;5030655;28;20021;-67
2022/07/31 08:51:44;;;;;;;36.15;12.48;;;;;;;-144.47;55.50;53366.56;5031635;28;20021;-68
2022/07/31 08:54:10;;;;;;;23.02;11.55;;;;;;;-144.47;55.22;53336.78;5031069;28;20029;-66
2022/07/31 08:56:39;;;;;;;23.65;10.73;;;;;;;-144.47;55.57;53372.53;5030367;28;20049;-67
2022/07/31 08:59:05;;;;;;;19.67;11.90;;;;;;;-144.47;55.30;53354.66;5030304;28;20021;-68
2022/07/31 09:01:35;;;;;;;22.35;11.45;;;;;;;-144.47;54.73;53338.75;5029683;28;20032;-67
2022/07/31 09:04:01;;;;;;;15.10;9.85;;;;;;;-144.47;53.46;53356.63;5030263;28;20021;-67
2022/07/31 09:06:27;;;;;;;21.20;10.13;;;;;;;-144.47;53.65;53316.91;5030170;28;20026;-67
2022/07/31 09:08:54;;;;;;;21.17;10.52;;;;;;;-144.47;53.62;53326.84;5029148;28;20055;-67
2022/07/31 09:11:21;;;;;;;29.60;10.40;;;;;;;-144.47;53.70;53318.91;5013370;28;20026;-68
2022/07/31 09:13:52;;;;;;;20.35;10.52;;;;;;;-144.47;53.38;53301.03;5030126;28;20029;-67
2022/07/31 09:16:17;;;;;;;20.88;9.05;;;;;;;-144.47;52.59;53322.88;5030660;28;20268;-65
2022/07/31 09:18:43;;;;;;;22.35;10.48;;;;;;;-144.47;52.86;53332.81;5031082;28;20192;-67
2022/07/31 09:21:08;;;;;;;25.48;10.48;;;;;;;-144.47;53.29;53354.66;5040140;23;20101;-66
2022/07/31 09:23:45;;;;;;;21.48;10.43;;;;;;;-144.47;53.08;53308.97;5008527;28;20038;-70
2022/07/31 09:26:10;;;;;;;26.35;9.60;;;;;;;-144.47;51.93;53297.03;4989852;28;20499;-67
2022/07/31 09:28:38;;;;;;;19.23;8.45;;;;;;;-144.47;51.74;53310.94;4996445;28;20018;-67
2022/07/31 09:31:06;;;;;;;18.90;7.27;;;;;;;-144.47;50.92;53291.09;5008543;28;20026;-68
2022/07/31 09:33:32;;;;;;;17.27;9.07;;;;;;;-144.47;50.35;53312.94;5009145;28;20136;-70
2022/07/31 09:35:58;;;;;;;19.98;7.82;;;;;;;-144.47;51.07;53320.88;4991131;28;20030;-65
2022/07/31 09:38:34;;;;;;;18.17;8.00;;;;;;;-144.47;50.90;53336.78;4971988;28;20030;-71
2022/07/31 09:41:14;;;;;;;12.23;7.55;;;;;;;-144.47;50.24;53316.91;4989153;28;20018;-69
2022/07/31 09:43:40;;;;;;;25.33;8.88;;;;;;;-144.47;50.35;53350.69;4989267;28;20037;-65
2022/07/31 09:46:07;;;;;;;17.25;8.52;;;;;;;-144.47;50.10;53320.88;4989558;28;20484;-68
2022/07/31 09:48:34;;;;;;;18.25;8.90;;;;;;;-144.47;49.60;53320.88;4988031;28;20041;-67
2022/07/31 09:51:03;;;;;;;15.60;8.77;;;;;;;-144.47;49.98;53281.16;5010333;28;20224;-67
2022/07/31 09:53:39;;;;;;;;;;;;;;;-144.47;49.48;53305.00;4992002;28;20543;-69
2022/07/31 09:56:06;;;;;;;22.95;9.90;;;;;;;-144.47;49.52;53312.94;5008653;28;19909;-67
2022/07/31 09:58:32;;;;;;;17.13;9.03;;;;;;;-144.47;48.75;53324.84;4989585;28;20444;-68
2022/07/31 10:01:00;;;;;;;17.52;8.00;;;;;;;-144.47;47.98;53301.03;4988506;28;20344;-70
2022/07/31 10:03:25;;;;;;;26.95;7.63;;;;;;;-144.47;47.87;53322.88;4956942;28;20124;-66
2022/07/31 10:05:54;;;;;;;24.55;8.27;;;;;;;-144.47;46.74;53289.09;4990054;28;20488;-70
2022/07/31 10:08:22;;;;;;;16.25;7.88;;;;;;;-144.47;46.91;53281.16;4988394;28;20365;-69
2022/07/31 10:10:48;;;;;;;12.98;6.05;;;;;;;-144.47;45.61;53338.75;4990011;28;20058;-68
2022/07/31 10:13:18;;;;;;;13.18;5.35;;;;;;;-144.47;43.39;53301.03;4989480;28;20038;-66
2022/07/31 10:15:45;;;;;;;13.73;5.45;;;;;;;-144.47;43.76;53316.91;4972611;28;20022;-66
2022/07/31 10:18:11;;;;;;;14.45;6.38;;;;;;;-144.47;44.12;53235.47;4971704;28;20044;-70
2022/07/31 10:20:41;;;;;;;14.18;5.00;;;;;;;-144.47;43.42;53279.16;4972996;28;20034;-68
2022/07/31 10:23:18;;;;;;;17.63;5.68;;;;;;;-144.47;44.08;53297.03;4988664;28;20381;-67
2022/07/31 10:25:51;;;;;;;15.52;6.28;;;;;;;-144.47;44.61;53291.09;4972396;28;20036;-66
2022/07/31 10:28:17;;;;;;;15.82;5.75;;;;;;;-144.47;43.79;53291.09;4987241;28;20037;-66
2022/07/31 10:30:45;;;;;;;16.15;4.93;;;;;;;-144.47;43.85;53283.13;4988236;28;20057;-70
2022/07/31 10:33:11;;;;;;;11.50;5.88;;;;;;;-144.47;44.10;53295.06;4994931;28;20029;-69
2022/07/31 10:35:57;;;;;;;9.15;4.97;;;;;;;-144.47;42.21;53283.13;4993018;28;20471;-66
2022/07/31 10:38:56;;;;;;;14.38;5.15;;;;;;;-144.47;42.96;53297.03;4986585;28;20118;-67
2022/07/31 10:41:36;;;;;;;;;;;;;;;-144.47;42.49;53283.13;4975382;28;20041;-69
2022/07/31 10:44:09;;;;;;;16.13;5.88;;;;;;;-144.47;42.07;53289.09;4987826;28;19918;-69
2022/07/31 10:46:35;;;;;;;9.98;4.90;;;;;;;-144.47;42.60;53271.22;4988780;28;20678;-70
2022/07/31 10:49:01;;;;;;;16.15;5.10;;;;;;;-144.47;41.42;53297.03;4989163;28;20503;-69
2022/07/31 10:51:26;;;;;;;11.07;3.97;;;;;;;-144.47;40.41;53241.44;4987573;28;20022;-66
2022/07/31 10:54:00;;;;;;;11.73;4.72;;;;;;;-144.47;41.32;53308.97;4988126;28;20022;-67
2022/07/31 10:56:26;;;;;;;10.38;4.10;;;;;;;-144.47;41.92;53285.13;4998099;28;20033;-68
2022/07/31 10:58:57;;;;;;;14.15;4.50;;;;;;;-144.47;40.57;53263.28;4987523;28;20376;-67
2022/07/31 11:01:25;;;;;;;8.23;3.60;;;;;;;-144.47;40.29;53265.25;4987845;28;20030;-66
2022/07/31 11:03:59;;;;;;;6.73;3.20;;;;;;;-144.47;39.44;53263.28;4980890;28;20475;-69
2022/07/31 11:06:25;;;;;;;11.48;3.75;;;;;;;-144.47;38.91;53253.34;5007268;28;20046;-71